Time;durP1;ratioP1;P1;durP2;ratioP2;P2;SDS_P1;SDS_P2;PMS_P1;PMS_P2;Temp;Humidity;BMP_temperature;BMP_pressure;BME280_temperature;BME280_humidity;BME280_pressure;Samples;Min_cycle;Max_cycle;Signal;HPM_P1;HPM_P2
2021/05/17 00:00:05;;;;;;;16.40;11.88;;;;;;;;;;5128270;27;20194;-75
2021/05/17 00:02:31;;;;;;;16.50;11.93;;;;;;;;;;5112773;28;20256;-77
2021/05/17 00:04:57;;;;;;;13.60;10.60;;;;;;;;;;5129985;28;20705;-76
2021/05/17 00:07:23;;;;;;;12.20;10.23;;;;;;;;;;5116400;28;20198;-76
2021/05/17 00:09:49;;;;;;;15.30;11.32;;;;;;;;;;5121492;28;20214;-76
2021/05/17 00:12:15;;;;;;;13.20;10.82;;;;;;;;;;5130432;28;20174;-75
2021/05/17 00:14:42;;;;;;;13.07;10.82;;;;;;;;;;5112663;27;20175;-75
2021/05/17 00:17:08;;;;;;;12.45;9.70;;;;;;;;;;5113511;28;20175;-75
2021/05/17 00:19:34;;;;;;;12.45;9.80;;;;;;;;;;5121328;28;20735;-74
2021/05/17 00:22:00;;;;;;;9.73;8.55;;;;;;;;;;5118189;28;20378;-76
2021/05/17 00:24:27;;;;;;;12.35;10.13;;;;;;;;;;5116045;28;20167;-75
2021/05/17 00:26:53;;;;;;;14.07;10.93;;;;;;;;;;5132552;28;20174;-75
2021/05/17 00:29:19;;;;;;;13.48;9.70;;;;;;;;;;5112635;28;20230;-76
2021/05/17 00:31:45;;;;;;;20.90;9.65;;;;;;;;;;5123329;28;20254;-75
2021/05/17 00:34:11;;;;;;;13.73;9.60;;;;;;;;;;5133566;28;20170;-76
2021/05/17 00:36:38;;;;;;;12.35;9.05;;;;;;;;;;5133702;28;20526;-74
2021/05/17 00:39:06;;;;;;;12.85;9.43;;;;;;;;;;5133547;28;20258;-76
2021/05/17 00:41:32;;;;;;;11.23;9.77;;;;;;;;;;5133657;28;20185;-76
2021/05/17 00:43:59;;;;;;;13.38;9.73;;;;;;;;;;5133666;28;20579;-74
2021/05/17 00:46:25;;;;;;;12.95;10.00;;;;;;;;;;5133672;28;20217;-75
2021/05/17 00:48:51;;;;;;;11.65;9.98;;;;;;;;;;5129766;28;20210;-75
2021/05/17 00:51:18;;;;;;;14.60;10.30;;;;;;;;;;5113819;28;20171;-75
2021/05/17 00:53:44;;;;;;;13.93;10.85;;;;;;;;;;5129692;28;20219;-75
2021/05/17 00:56:11;;;;;;;16.60;10.20;;;;;;;;;;5132641;28;20627;-74
2021/05/17 00:58:37;;;;;;;11.95;9.85;;;;;;;;;;5130316;28;20198;-76
2021/05/17 01:01:04;;;;;;;16.52;11.00;;;;;;;;;;5123144;28;20200;-75
2021/05/17 01:03:30;;;;;;;11.35;9.88;;;;;;;;;;5126800;28;20183;-75
2021/05/17 01:05:56;;;;;;;14.25;10.48;;;;;;;;;;5106376;28;20207;-75
2021/05/17 01:08:26;;;;;;;13.52;10.68;;;;;;;;;;5122071;28;20205;-75
2021/05/17 01:10:56;;;;;;;12.82;11.50;;;;;;;;;;5113958;28;20707;-75
2021/05/17 01:13:22;;;;;;;16.30;12.05;;;;;;;;;;5106873;27;20175;-76
2021/05/17 01:15:48;;;;;;;16.75;12.70;;;;;;;;;;5127891;27;20260;-75
2021/05/17 01:18:16;;;;;;;15.27;11.90;;;;;;;;;;5120867;27;20189;-76
2021/05/17 01:20:44;;;;;;;13.57;11.82;;;;;;;;;;5122715;27;20218;-76
2021/05/17 01:25:45;;;;;;;20.10;10.68;;;;;;;;;;5118154;27;20243;-75
2021/05/17 01:28:19;;;;;;;14.20;11.40;;;;;;;;;;5109337;27;20297;-76
2021/05/17 01:30:46;;;;;;;11.20;9.27;;;;;;;;;;5116139;28;20283;-75
2021/05/17 01:33:12;;;;;;;12.60;10.00;;;;;;;;;;5121063;27;20603;-75
2021/05/17 01:35:38;;;;;;;13.27;9.82;;;;;;;;;;5109204;28;20270;-75
2021/05/17 01:38:04;;;;;;;10.73;9.13;;;;;;;;;;5116036;28;20202;-75
2021/05/17 01:40:31;;;;;;;10.82;8.65;;;;;;;;;;5132966;27;20432;-76
2021/05/17 01:42:57;;;;;;;11.68;8.95;;;;;;;;;;5102831;27;20179;-74
2021/05/17 01:45:24;;;;;;;12.07;9.70;;;;;;;;;;5113589;27;20235;-75
2021/05/17 01:47:50;;;;;;;11.73;8.63;;;;;;;;;;5126330;27;20232;-74
2021/05/17 01:50:18;;;;;;;10.83;9.17;;;;;;;;;;5131391;27;20198;-75
2021/05/17 01:52:44;;;;;;;12.82;9.02;;;;;;;;;;5124118;27;20464;-75
2021/05/17 01:55:11;;;;;;;11.48;8.25;;;;;;;;;;5116143;27;20175;-75
2021/05/17 01:57:38;;;;;;;12.38;9.18;;;;;;;;;;5136140;27;20182;-76
2021/05/17 02:00:05;;;;;;;9.50;8.23;;;;;;;;;;5116102;27;20199;-75
2021/05/17 02:02:31;;;;;;;9.25;8.32;;;;;;;;;;5119383;27;20211;-74
2021/05/17 02:04:57;;;;;;;10.63;8.05;;;;;;;;;;5114569;27;20198;-77
2021/05/17 02:07:23;;;;;;;8.27;7.20;;;;;;;;;;5121179;27;20260;-75
2021/05/17 02:09:52;;;;;;;8.17;6.50;;;;;;;;;;5131511;27;20260;-75
2021/05/17 02:12:21;;;;;;;12.02;6.93;;;;;;;;;;5135819;27;20396;-75
2021/05/17 02:14:50;;;;;;;7.20;6.45;;;;;;;;;;5115313;27;20623;-75
2021/05/17 02:17:16;;;;;;;10.00;6.97;;;;;;;;;;5116441;27;20182;-74
2021/05/17 02:19:42;;;;;;;7.28;6.40;;;;;;;;;;5110284;27;20280;-75
2021/05/17 02:22:08;;;;;;;6.93;6.13;;;;;;;;;;5132782;27;20174;-76
2021/05/17 02:24:34;;;;;;;10.57;7.28;;;;;;;;;;5134200;27;20184;-76
2021/05/17 02:27:00;;;;;;;7.53;6.70;;;;;;;;;;5118895;27;20264;-74
2021/05/17 02:29:27;;;;;;;9.45;7.35;;;;;;;;;;5115694;27;20202;-75
2021/05/17 02:31:53;;;;;;;9.55;6.68;;;;;;;;;;5118875;27;20178;-75
2021/05/17 02:34:19;;;;;;;10.45;6.63;;;;;;;;;;5118727;27;20527;-75
2021/05/17 02:36:45;;;;;;;10.27;6.63;;;;;;;;;;5110661;27;20182;-75
2021/05/17 02:39:11;;;;;;;7.93;6.32;;;;;;;;;;5115349;27;20453;-75
2021/05/17 02:41:37;;;;;;;10.52;7.00;;;;;;;;;;5125264;27;20530;-74
2021/05/17 02:44:03;;;;;;;10.25;7.25;;;;;;;;;;5113547;27;20539;-74
2021/05/17 02:46:29;;;;;;;9.13;7.38;;;;;;;;;;5107236;28;20241;-74
2021/05/17 02:48:56;;;;;;;8.82;7.60;;;;;;;;;;5114358;27;20213;-75
2021/05/17 02:51:22;;;;;;;8.80;7.40;;;;;;;;;;5112011;28;20547;-75
2021/05/17 02:53:50;;;;;;;10.02;8.13;;;;;;;;;;5100979;28;20182;-75
2021/05/17 02:56:18;;;;;;;9.23;8.07;;;;;;;;;;5123701;27;20173;-74
2021/05/17 02:58:45;;;;;;;9.32;8.20;;;;;;;;;;5109284;28;20195;-75
2021/05/17 03:01:11;;;;;;;9.82;7.45;;;;;;;;;;5110252;28;20178;-75
2021/05/17 03:03:57;;;;;;;12.90;7.90;;;;;;;;;;5114148;28;20227;-74
2021/05/17 03:06:23;;;;;;;8.38;7.50;;;;;;;;;;5113936;28;20420;-76
2021/05/17 03:09:02;;;;;;;12.23;8.20;;;;;;;;;;5118318;27;20590;-74
2021/05/17 03:11:29;;;;;;;9.05;7.80;;;;;;;;;;5134788;27;20430;-74
2021/05/17 03:13:56;;;;;;;11.30;9.02;;;;;;;;;;5124430;27;20178;-75
2021/05/17 03:16:23;;;;;;;8.38;7.55;;;;;;;;;;5110052;28;20607;-75
2021/05/17 03:18:50;;;;;;;9.10;8.18;;;;;;;;;;5113949;28;20277;-76
2021/05/17 03:21:21;;;;;;;13.55;9.02;;;;;;;;;;5112525;27;20239;-75
2021/05/17 03:23:48;;;;;;;9.18;8.23;;;;;;;;;;5127083;27;20651;-76
2021/05/17 03:26:15;;;;;;;10.02;9.02;;;;;;;;;;5113724;27;20193;-75
2021/05/17 03:28:41;;;;;;;10.98;8.77;;;;;;;;;;5106000;28;20584;-76
2021/05/17 03:31:07;;;;;;;13.37;9.97;;;;;;;;;;5131281;27;20170;-76
2021/05/17 03:33:33;;;;;;;15.33;9.33;;;;;;;;;;5113795;27;20911;-76
2021/05/17 03:35:59;;;;;;;13.37;9.17;;;;;;;;;;5127880;27;20553;-76
2021/05/17 03:38:25;;;;;;;11.50;9.20;;;;;;;;;;5107911;28;20432;-75
2021/05/17 03:40:51;;;;;;;12.10;10.10;;;;;;;;;;5113480;28;20420;-76
2021/05/17 03:43:17;;;;;;;13.30;10.13;;;;;;;;;;5120690;27;20174;-76
2021/05/17 03:45:43;;;;;;;11.55;9.13;;;;;;;;;;5115546;27;20415;-76
2021/05/17 03:48:09;;;;;;;16.27;9.40;;;;;;;;;;5125115;27;20230;-74
2021/05/17 03:50:35;;;;;;;10.27;9.27;;;;;;;;;;5115323;27;20425;-74
2021/05/17 03:53:01;;;;;;;12.83;9.33;;;;;;;;;;5113031;28;20192;-75
2021/05/17 03:55:27;;;;;;;13.80;10.90;;;;;;;;;;5120392;27;20980;-75
2021/05/17 03:57:58;;;;;;;9.00;8.10;;;;;;;;;;5132253;27;20180;-75
2021/05/17 04:00:26;;;;;;;11.68;8.90;;;;;;;;;;5113024;28;20438;-75
2021/05/17 04:02:52;;;;;;;9.80;8.80;;;;;;;;;;5109845;28;20201;-75
2021/05/17 04:05:38;;;;;;;10.33;9.23;;;;;;;;;;5113440;28;20218;-75
2021/05/17 04:08:23;;;;;;;9.60;8.80;;;;;;;;;;5113946;28;20448;-75
2021/05/17 04:13:35;;;;;;;8.27;7.45;;;;;;;;;;5111129;27;20183;-76
2021/05/17 04:16:01;;;;;;;9.10;8.20;;;;;;;;;;5110921;28;20189;-76
2021/05/17 04:18:27;;;;;;;10.90;8.73;;;;;;;;;;5120071;28;20893;-76
2021/05/17 04:20:54;;;;;;;11.02;9.40;;;;;;;;;;5117145;28;20205;-76
2021/05/17 04:23:21;;;;;;;9.55;8.45;;;;;;;;;;5104110;28;20179;-76
2021/05/17 04:25:47;;;;;;;8.98;8.18;;;;;;;;;;5112208;28;20239;-75
2021/05/17 04:28:13;;;;;;;10.02;8.38;;;;;;;;;;5103880;28;20279;-76
2021/05/17 04:30:39;;;;;;;11.10;7.85;;;;;;;;;;5106735;28;20172;-75
2021/05/17 04:33:05;;;;;;;8.43;7.00;;;;;;;;;;5111808;28;20210;-75
2021/05/17 04:35:31;;;;;;;7.60;6.80;;;;;;;;;;5117106;28;20178;-75
2021/05/17 04:37:57;;;;;;;7.32;6.60;;;;;;;;;;5127036;28;20871;-75
2021/05/17 04:40:23;;;;;;;8.95;7.30;;;;;;;;;;5113040;28;20225;-75
2021/05/17 04:42:49;;;;;;;8.40;6.50;;;;;;;;;;5112916;28;20224;-75
2021/05/17 04:45:15;;;;;;;7.53;6.90;;;;;;;;;;5108848;28;20182;-74
2021/05/17 04:47:41;;;;;;;11.30;8.52;;;;;;;;;;5118387;28;21089;-75
2021/05/17 04:50:07;;;;;;;7.93;7.20;;;;;;;;;;5122479;27;20190;-75
2021/05/17 04:52:33;;;;;;;7.72;6.85;;;;;;;;;;5114174;27;20410;-77
2021/05/17 04:54:59;;;;;;;8.68;7.75;;;;;;;;;;5119015;27;20624;-74
2021/05/17 04:57:26;;;;;;;7.85;7.05;;;;;;;;;;5132106;27;20182;-75
2021/05/17 04:59:52;;;;;;;9.57;7.75;;;;;;;;;;5121149;27;20195;-76
2021/05/17 05:02:18;;;;;;;8.68;7.78;;;;;;;;;;5110508;28;20521;-75
2021/05/17 05:04:44;;;;;;;9.70;8.07;;;;;;;;;;5125145;27;20182;-75
2021/05/17 05:07:10;;;;;;;9.20;8.23;;;;;;;;;;5115739;28;20400;-76
2021/05/17 05:09:36;;;;;;;8.70;7.10;;;;;;;;;;5133833;27;20470;-76
2021/05/17 05:12:02;;;;;;;9.30;8.40;;;;;;;;;;5125210;27;20460;-76
2021/05/17 05:14:28;;;;;;;9.40;8.50;;;;;;;;;;5112142;27;20209;-76
2021/05/17 05:16:53;;;;;;;9.13;8.00;;;;;;;;;;5116974;27;20167;-76
2021/05/17 05:19:21;;;;;;;9.93;8.93;;;;;;;;;;5115239;28;20444;-76
2021/05/17 05:21:47;;;;;;;9.40;8.50;;;;;;;;;;5105774;27;20520;-76
2021/05/17 05:24:13;;;;;;;9.93;8.90;;;;;;;;;;5127421;27;20647;-76
2021/05/17 05:26:53;;;;;;;9.57;8.60;;;;;;;;;;5117276;27;20431;-75
2021/05/17 05:29:40;;;;;;;10.82;9.80;;;;;;;;;;5115838;28;20456;-75
2021/05/17 05:34:44;;;;;;;10.55;9.45;;;;;;;;;;5122301;27;20178;-74
2021/05/17 05:37:10;;;;;;;10.07;9.17;;;;;;;;;;5120116;27;20174;-75
2021/05/17 05:39:36;;;;;;;10.77;9.48;;;;;;;;;;5125420;27;20445;-75
2021/05/17 05:42:02;;;;;;;10.00;9.00;;;;;;;;;;5110008;28;20176;-74
2021/05/17 05:44:28;;;;;;;9.80;8.80;;;;;;;;;;5115383;28;20179;-75
2021/05/17 05:46:54;;;;;;;10.07;9.00;;;;;;;;;;5110853;28;20184;-77
2021/05/17 05:49:22;;;;;;;10.53;9.40;;;;;;;;;;5106300;28;20488;-75
2021/05/17 05:51:48;;;;;;;10.23;9.18;;;;;;;;;;5116087;28;20412;-75
2021/05/17 05:54:14;;;;;;;10.30;9.30;;;;;;;;;;5115583;28;20185;-76
2021/05/17 05:56:40;;;;;;;10.40;9.40;;;;;;;;;;5114653;28;20927;-75
2021/05/17 05:59:06;;;;;;;9.33;8.17;;;;;;;;;;5115324;28;20196;-75
2021/05/17 06:01:32;;;;;;;9.97;8.97;;;;;;;;;;5115687;28;20453;-75
2021/05/17 06:03:58;;;;;;;10.10;9.20;;;;;;;;;;5115199;28;20433;-75
2021/05/17 06:06:24;;;;;;;12.30;10.47;;;;;;;;;;5114630;27;20936;-76
2021/05/17 06:08:50;;;;;;;10.70;9.60;;;;;;;;;;5113258;28;20460;-76
2021/05/17 06:11:17;;;;;;;10.70;9.60;;;;;;;;;;5114988;28;20564;-75
2021/05/17 06:13:44;;;;;;;10.43;9.30;;;;;;;;;;5115284;28;20172;-75
2021/05/17 06:16:11;;;;;;;11.05;9.95;;;;;;;;;;5109925;28;20525;-76
2021/05/17 06:18:37;;;;;;;11.05;9.95;;;;;;;;;;5112652;27;20196;-75
2021/05/17 06:21:04;;;;;;;12.20;9.95;;;;;;;;;;5113726;28;20186;-75
2021/05/17 06:23:30;;;;;;;10.38;9.43;;;;;;;;;;5113741;28;20599;-73
2021/05/17 06:25:57;;;;;;;11.63;10.52;;;;;;;;;;5114659;27;20179;-74
2021/05/17 06:28:24;;;;;;;10.75;9.65;;;;;;;;;;5114423;28;20525;-75
2021/05/17 06:30:56;;;;;;;10.70;9.70;;;;;;;;;;5117300;27;20194;-74
2021/05/17 06:33:22;;;;;;;10.63;9.70;;;;;;;;;;5114317;28;20508;-75
2021/05/17 06:35:54;;;;;;;11.80;10.07;;;;;;;;;;5110889;28;20171;-75
2021/05/17 06:38:20;;;;;;;10.82;9.80;;;;;;;;;;5115033;27;20172;-76
2021/05/17 06:40:46;;;;;;;11.98;10.77;;;;;;;;;;5101615;28;20183;-75
2021/05/17 06:43:12;;;;;;;10.57;9.48;;;;;;;;;;5112688;28;20186;-76
2021/05/17 06:45:38;;;;;;;10.60;9.60;;;;;;;;;;5110190;28;20182;-77
2021/05/17 06:48:05;;;;;;;11.43;9.90;;;;;;;;;;5105206;27;20194;-76
2021/05/17 06:50:32;;;;;;;11.32;10.23;;;;;;;;;;5115010;27;20201;-76
2021/05/17 06:52:58;;;;;;;10.98;9.88;;;;;;;;;;5124709;27;20571;-77
2021/05/17 06:55:31;;;;;;;12.45;10.25;;;;;;;;;;5111201;28;20196;-77
2021/05/17 06:58:06;;;;;;;13.15;9.52;;;;;;;;;;5111248;28;20251;-75
2021/05/17 07:00:32;;;;;;;11.27;9.80;;;;;;;;;;5103032;28;20227;-75
2021/05/17 07:03:00;;;;;;;13.18;10.30;;;;;;;;;;5105183;28;20181;-76
2021/05/17 07:05:26;;;;;;;10.90;9.80;;;;;;;;;;5100332;28;20224;-75
2021/05/17 07:13:13;;;;;;;11.00;9.65;;;;;;;;;;5109409;28;20209;-76
2021/05/17 07:15:39;;;;;;;11.18;10.07;;;;;;;;;;5104124;27;20626;-77
2021/05/17 07:18:05;;;;;;;11.07;10.07;;;;;;;;;;5133265;27;20238;-76
2021/05/17 07:23:37;;;;;;;10.63;9.20;;;;;;;;;;5109950;27;20456;-77
2021/05/17 07:23:40;;;;;;;10.68;9.65;;;;;;;;;;5121591;27;20884;-75
2021/05/17 07:26:08;;;;;;;11.80;10.20;;;;;;;;;;5114582;27;20178;-76
2021/05/17 07:28:34;;;;;;;19.42;17.33;;;;;;;;;;5110552;28;20696;-76
2021/05/17 07:31:05;;;;;;;11.35;10.23;;;;;;;;;;5096352;28;20171;-76
2021/05/17 07:33:32;;;;;;;9.65;8.73;;;;;;;;;;5111309;27;20178;-76
2021/05/17 07:35:58;;;;;;;9.43;8.60;;;;;;;;;;5125387;27;20615;-76
2021/05/17 07:38:29;;;;;;;8.55;7.75;;;;;;;;;;5110614;28;20178;-75
2021/05/17 07:40:55;;;;;;;9.55;8.60;;;;;;;;;;5110598;28;20174;-76
2021/05/17 07:43:22;;;;;;;8.93;8.02;;;;;;;;;;5111590;27;20602;-74
2021/05/17 07:45:48;;;;;;;9.65;8.45;;;;;;;;;;5128670;27;20206;-74
2021/05/17 07:48:14;;;;;;;9.25;8.35;;;;;;;;;;5105666;28;20247;-77
2021/05/17 07:50:40;;;;;;;13.38;7.97;;;;;;;;;;5102876;28;20171;-75
2021/05/17 07:53:06;;;;;;;7.43;6.80;;;;;;;;;;5096525;28;20175;-75
2021/05/17 07:55:32;;;;;;;7.30;6.07;;;;;;;;;;5119700;27;20423;-76
2021/05/17 07:57:58;;;;;;;6.53;5.80;;;;;;;;;;5126172;27;20833;-75
2021/05/17 08:00:24;;;;;;;7.30;6.05;;;;;;;;;;5102837;28;20199;-75
2021/05/17 08:02:51;;;;;;;10.93;6.30;;;;;;;;;;5105172;28;20174;-76
2021/05/17 08:05:17;;;;;;;8.80;6.30;;;;;;;;;;5110283;28;20435;-74
2021/05/17 08:07:43;;;;;;;9.20;6.80;;;;;;;;;;5110225;28;20664;-76
2021/05/17 08:10:11;;;;;;;6.80;6.30;;;;;;;;;;5120808;28;20194;-75
2021/05/17 08:12:37;;;;;;;7.20;5.90;;;;;;;;;;5114997;28;20431;-76
2021/05/17 08:15:04;;;;;;;6.43;5.93;;;;;;;;;;5110096;28;20404;-76
2021/05/17 08:17:30;;;;;;;6.90;6.30;;;;;;;;;;5107338;28;20417;-75
2021/05/17 08:19:56;;;;;;;7.90;7.10;;;;;;;;;;5120637;28;20439;-75
2021/05/17 08:22:22;;;;;;;6.60;5.63;;;;;;;;;;5116139;28;20461;-76
2021/05/17 08:24:49;;;;;;;7.83;7.03;;;;;;;;;;5116162;28;20409;-76
2021/05/17 08:27:15;;;;;;;10.70;5.77;;;;;;;;;;5103945;27;20428;-75
2021/05/17 08:29:41;;;;;;;5.53;5.00;;;;;;;;;;5115787;28;20463;-75
2021/05/17 08:32:09;;;;;;;5.67;4.20;;;;;;;;;;5107275;27;20177;-76
2021/05/17 08:34:36;;;;;;;5.20;4.70;;;;;;;;;;5124589;27;20408;-75
2021/05/17 08:37:02;;;;;;;7.47;4.63;;;;;;;;;;5125003;27;20399;-76
2021/05/17 08:39:28;;;;;;;6.40;4.70;;;;;;;;;;5124740;27;20428;-77
2021/05/17 08:41:57;;;;;;;4.93;4.43;;;;;;;;;;5117118;27;20434;-76
2021/05/17 08:44:23;;;;;;;4.60;4.20;;;;;;;;;;5113776;28;20416;-75
2021/05/17 08:46:50;;;;;;;5.43;4.17;;;;;;;;;;5121184;27;20828;-75
2021/05/17 08:49:16;;;;;;;5.80;4.70;;;;;;;;;;5123723;27;20565;-76
2021/05/17 08:51:43;;;;;;;4.90;3.10;;;;;;;;;;5110273;27;20429;-76
2021/05/17 08:54:09;;;;;;;3.00;2.33;;;;;;;;;;5134920;27;20409;-76
2021/05/17 08:56:39;;;;;;;5.50;3.00;;;;;;;;;;5114617;27;20854;-76
2021/05/17 08:59:06;;;;;;;2.90;2.57;;;;;;;;;;5124353;27;20436;-74
2021/05/17 09:01:33;;;;;;;3.20;2.50;;;;;;;;;;5113354;27;20420;-76
2021/05/17 09:04:11;;;;;;;3.07;2.50;;;;;;;;;;5113623;27;20489;-76
2021/05/17 09:06:39;;;;;;;4.23;2.17;;;;;;;;;;5119898;27;20989;-75
2021/05/17 09:09:06;;;;;;;5.83;2.30;;;;;;;;;;5121000;27;20461;-75
2021/05/17 09:11:33;;;;;;;4.43;2.63;;;;;;;;;;5119399;27;20417;-75
2021/05/17 09:14:12;;;;;;;4.60;2.90;;;;;;;;;;5121548;27;20419;-75
2021/05/17 09:16:45;;;;;;;4.53;4.13;;;;;;;;;;5107249;27;20406;-76
2021/05/17 09:19:12;;;;;;;5.13;4.63;;;;;;;;;;5120067;27;20957;-75
2021/05/17 09:21:57;;;;;;;5.03;4.63;;;;;;;;;;5120814;27;20416;-75
2021/05/17 09:24:35;;;;;;;5.13;4.67;;;;;;;;;;5116929;27;20421;-75
2021/05/17 09:27:01;;;;;;;5.57;5.17;;;;;;;;;;5125437;27;20419;-77
2021/05/17 09:29:27;;;;;;;6.10;5.60;;;;;;;;;;5112104;28;20557;-74
2021/05/17 09:31:54;;;;;;;5.20;4.80;;;;;;;;;;5116617;27;20430;-76
2021/05/17 09:34:33;;;;;;;5.13;4.73;;;;;;;;;;5117984;27;20407;-76
2021/05/17 09:37:02;;;;;;;6.20;5.67;;;;;;;;;;5116251;27;20426;-77
2021/05/17 09:39:28;;;;;;;6.93;6.43;;;;;;;;;;5115098;27;20430;-75
2021/05/17 09:41:56;;;;;;;8.77;6.30;;;;;;;;;;5112307;28;21133;-76
2021/05/17 09:44:27;;;;;;;6.93;6.33;;;;;;;;;;5117389;27;20427;-76
2021/05/17 09:46:57;;;;;;;7.20;6.70;;;;;;;;;;5123144;27;20431;-76
2021/05/17 09:49:30;;;;;;;6.33;5.90;;;;;;;;;;5119798;27;21021;-76
2021/05/17 09:52:10;;;;;;;6.40;5.80;;;;;;;;;;5124516;27;20779;-76
2021/05/17 09:54:46;;;;;;;5.80;5.20;;;;;;;;;;5132155;27;20420;-75
2021/05/17 09:57:16;;;;;;;5.83;5.33;;;;;;;;;;5127537;27;20421;-75
2021/05/17 09:59:49;;;;;;;5.03;4.63;;;;;;;;;;5132233;27;20434;-75
2021/05/17 10:02:28;;;;;;;5.13;4.63;;;;;;;;;;5130771;27;20443;-77
2021/05/17 10:04:55;;;;;;;5.07;4.63;;;;;;;;;;5131783;27;20433;-78
2021/05/17 10:07:22;;;;;;;5.17;4.67;;;;;;;;;;5114435;27;20432;-76
2021/05/17 10:09:48;;;;;;;4.83;4.40;;;;;;;;;;5115098;27;20504;-76
2021/05/17 10:12:15;;;;;;;4.93;3.83;;;;;;;;;;5123424;27;20438;-77
2021/05/17 10:14:41;;;;;;;4.40;4.00;;;;;;;;;;5118051;27;20407;-77
2021/05/17 10:17:07;;;;;;;4.83;4.40;;;;;;;;;;5121181;27;21186;-76
2021/05/17 10:19:33;;;;;;;4.97;4.20;;;;;;;;;;5127105;27;20444;-75
2021/05/17 10:22:00;;;;;;;4.20;3.90;;;;;;;;;;5116209;27;20457;-76
2021/05/17 10:24:26;;;;;;;3.50;3.20;;;;;;;;;;5103878;28;20794;-77
2021/05/17 10:26:52;;;;;;;3.77;3.37;;;;;;;;;;5114147;27;20418;-78
2021/05/17 10:29:18;;;;;;;3.73;3.43;;;;;;;;;;5113204;27;20503;-78
2021/05/17 10:31:53;;;;;;;3.53;3.23;;;;;;;;;;5113745;27;21222;-76
2021/05/17 10:34:19;;;;;;;4.50;3.70;;;;;;;;;;5121869;27;20430;-79
2021/05/17 10:37:00;;;;;;;4.20;3.80;;;;;;;;;;5103396;28;20801;-78
2021/05/17 10:39:37;;;;;;;4.93;4.03;;;;;;;;;;5106798;28;20452;-77
2021/05/17 10:46:36;;;;;;;4.87;4.20;;;;;;;;;;5108929;27;20429;-76
2021/05/17 10:47:38;;;;;;;5.60;5.20;;;;;;;;;;5104622;28;20424;-77
2021/05/17 10:50:33;;;;;;;6.57;4.80;;;;;;;;;;5125432;27;20465;-77
2021/05/17 10:52:59;;;;;;;6.03;5.47;;;;;;;;;;5116906;27;20419;-75
2021/05/17 10:55:25;;;;;;;5.07;4.50;;;;;;;;;;5101819;27;20428;-75
2021/05/17 11:00:32;;;;;;;6.27;5.77;;;;;;;;;;5101525;28;20452;-78
2021/05/17 11:03:12;;;;;;;5.53;5.03;;;;;;;;;;5108853;28;20986;-77
2021/05/17 11:05:43;;;;;;;5.10;4.60;;;;;;;;;;5110378;27;20439;-78
2021/05/17 11:08:17;;;;;;;6.50;4.50;;;;;;;;;;5100209;27;20544;-76
2021/05/17 11:10:53;;;;;;;11.80;5.10;;;;;;;;;;5077841;28;20434;-75
2021/05/17 11:13:20;;;;;;;7.93;6.80;;;;;;;;;;5088594;28;20424;-73
2021/05/17 11:16:06;;;;;;;10.45;7.35;;;;;;;;;;5093391;28;20504;-72
2021/05/17 11:18:34;;;;;;;10.38;8.63;;;;;;;;;;5076586;28;20172;-72
2021/05/17 11:21:02;;;;;;;12.38;8.45;;;;;;;;;;5078552;28;20234;-72
2021/05/17 11:23:37;;;;;;;12.55;10.85;;;;;;;;;;5074627;28;20183;-73
2021/05/17 11:26:09;;;;;;;11.77;10.68;;;;;;;;;;5071875;28;20207;-73
2021/05/17 11:31:04;;;;;;;13.75;10.50;;;;;;;;;;5090763;28;20267;-74
2021/05/17 11:33:47;;;;;;;7.83;7.10;;;;;;;;;;5095744;28;20667;-73
2021/05/17 11:36:13;;;;;;;5.10;4.60;;;;;;;;;;5101395;28;20482;-73
2021/05/17 11:38:58;;;;;;;5.33;4.93;;;;;;;;;;5084661;28;20443;-73
2021/05/17 11:41:24;;;;;;;4.70;4.33;;;;;;;;;;5084216;28;20427;-74
2021/05/17 11:43:50;;;;;;;4.33;3.90;;;;;;;;;;5081249;28;20893;-74
2021/05/17 11:46:16;;;;;;;5.80;5.27;;;;;;;;;;5077632;28;20557;-75
2021/05/17 11:48:43;;;;;;;6.10;5.60;;;;;;;;;;5069511;28;20508;-74
2021/05/17 11:51:09;;;;;;;5.80;5.30;;;;;;;;;;5065654;28;20812;-75
2021/05/17 11:53:36;;;;;;;6.93;6.33;;;;;;;;;;5067006;28;20422;-74
2021/05/17 11:56:04;;;;;;;4.27;3.90;;;;;;;;;;5065740;28;20446;-74
2021/05/17 11:58:30;;;;;;;4.80;4.40;;;;;;;;;;5078640;28;20423;-75
2021/05/17 12:01:14;;;;;;;4.23;3.93;;;;;;;;;;5065656;28;20816;-75
2021/05/17 12:03:41;;;;;;;4.90;4.47;;;;;;;;;;5076813;28;20858;-75
2021/05/17 12:06:07;;;;;;;3.93;3.63;;;;;;;;;;5065686;28;20418;-75
2021/05/17 12:08:34;;;;;;;4.20;3.90;;;;;;;;;;5073918;28;20465;-75
2021/05/17 12:11:00;;;;;;;5.53;5.13;;;;;;;;;;5086954;28;20510;-74
2021/05/17 12:13:26;;;;;;;5.63;5.17;;;;;;;;;;5088274;28;20427;-75
2021/05/17 12:15:52;;;;;;;5.37;4.97;;;;;;;;;;5079937;28;20425;-75
2021/05/17 12:18:19;;;;;;;5.40;4.90;;;;;;;;;;5066040;28;20468;-75
2021/05/17 12:20:46;;;;;;;5.93;5.33;;;;;;;;;;5072474;28;20420;-73
2021/05/17 12:23:12;;;;;;;5.70;5.20;;;;;;;;;;5063606;28;20415;-74
2021/05/17 12:25:38;;;;;;;5.40;4.90;;;;;;;;;;5077291;28;20468;-75
2021/05/17 12:28:04;;;;;;;4.20;3.90;;;;;;;;;;5066126;28;20854;-74
2021/05/17 12:30:31;;;;;;;2.73;2.53;;;;;;;;;;5063286;28;20835;-76
2021/05/17 12:33:02;;;;;;;2.97;2.77;;;;;;;;;;5054161;28;20443;-75
2021/05/17 12:35:32;;;;;;;3.17;2.60;;;;;;;;;;5065322;28;20767;-76
2021/05/17 12:37:58;;;;;;;2.40;2.10;;;;;;;;;;5060854;28;20440;-75
2021/05/17 12:40:24;;;;;;;3.57;1.90;;;;;;;;;;5060785;28;20431;-74
2021/05/17 12:43:09;;;;;;;2.80;2.43;;;;;;;;;;5055578;28;20825;-74
2021/05/17 12:45:42;;;;;;;3.03;2.60;;;;;;;;;;5081035;28;20421;-74
2021/05/17 12:48:46;;;;;;;2.80;2.60;;;;;;;;;;5059005;28;20816;-75
2021/05/17 12:51:12;;;;;;;2.80;2.60;;;;;;;;;;5059023;28;20427;-75
2021/05/17 12:53:38;;;;;;;3.50;3.20;;;;;;;;;;5051625;28;20482;-75
2021/05/17 12:56:04;;;;;;;4.97;3.47;;;;;;;;;;5057295;28;20423;-75
2021/05/17 12:58:33;;;;;;;3.80;3.50;;;;;;;;;;5051745;28;20843;-75
2021/05/17 13:01:02;;;;;;;4.00;3.70;;;;;;;;;;5058339;28;20423;-75
2021/05/17 13:03:28;;;;;;;3.80;3.50;;;;;;;;;;5065116;28;20424;-76
2021/05/17 13:06:07;;;;;;;3.57;3.27;;;;;;;;;;5052108;28;20400;-77
2021/05/17 13:08:36;;;;;;;4.00;3.70;;;;;;;;;;5054527;28;20419;-75
2021/05/17 13:11:06;;;;;;;3.87;3.27;;;;;;;;;;5065468;28;20955;-75
2021/05/17 13:13:49;;;;;;;3.27;2.90;;;;;;;;;;5061874;28;20437;-76
2021/05/17 13:16:30;;;;;;;3.67;3.33;;;;;;;;;;5052768;28;20413;-75
2021/05/17 13:19:05;;;;;;;3.63;3.33;;;;;;;;;;5070037;28;20448;-76
2021/05/17 13:22:00;;;;;;;4.47;3.60;;;;;;;;;;5057367;28;20457;-76
2021/05/17 13:32:41;;;;;;;4.97;4.57;;;;;;;;;;5052041;28;20434;-75
2021/05/17 13:35:08;;;;;;;3.70;3.40;;;;;;;;;;5068649;28;20430;-75
2021/05/17 13:37:34;;;;;;;3.93;3.60;;;;;;;;;;5083171;28;20575;-75
2021/05/17 13:40:00;;;;;;;4.00;3.67;;;;;;;;;;5061301;28;20580;-74
2021/05/17 13:42:26;;;;;;;4.03;3.67;;;;;;;;;;5063585;28;20505;-75
2021/05/17 13:44:53;;;;;;;3.70;3.40;;;;;;;;;;5067591;28;20905;-75
2021/05/17 13:47:21;;;;;;;4.40;4.00;;;;;;;;;;5080000;28;20910;-76
2021/05/17 13:49:48;;;;;;;5.97;5.47;;;;;;;;;;5083526;28;20451;-75
2021/05/17 13:52:14;;;;;;;4.47;4.10;;;;;;;;;;5081939;28;20436;-74
2021/05/17 13:54:40;;;;;;;4.33;3.83;;;;;;;;;;5066608;28;20839;-75
2021/05/17 13:57:06;;;;;;;4.40;4.10;;;;;;;;;;5077603;28;20437;-75
2021/05/17 13:59:32;;;;;;;4.73;4.33;;;;;;;;;;5083249;28;20497;-75
2021/05/17 14:01:58;;;;;;;4.17;3.87;;;;;;;;;;5063066;28;20423;-76
2021/05/17 14:04:27;;;;;;;4.30;3.83;;;;;;;;;;5049806;28;20428;-74
2021/05/17 14:06:53;;;;;;;4.83;4.43;;;;;;;;;;5053309;28;20466;-75
2021/05/17 14:09:19;;;;;;;4.90;4.50;;;;;;;;;;5064805;28;21021;-75
2021/05/17 14:11:49;;;;;;;4.73;4.33;;;;;;;;;;5061354;28;21153;-75
2021/05/17 14:14:15;;;;;;;5.30;4.80;;;;;;;;;;5050096;28;20739;-75
2021/05/17 14:16:41;;;;;;;5.00;4.60;;;;;;;;;;5059364;28;20546;-76
2021/05/17 14:19:09;;;;;;;5.40;4.93;;;;;;;;;;5073681;28;20457;-75
2021/05/17 14:21:35;;;;;;;5.30;4.90;;;;;;;;;;5057904;28;20513;-76
2021/05/17 14:24:01;;;;;;;6.00;5.50;;;;;;;;;;5053114;28;20420;-75
2021/05/17 14:26:27;;;;;;;4.77;4.37;;;;;;;;;;5058082;28;20470;-74
2021/05/17 14:28:53;;;;;;;4.50;4.10;;;;;;;;;;5061573;28;20451;-76
2021/05/17 14:31:19;;;;;;;4.38;3.97;;;;;;;;;;5049733;28;20411;-74
2021/05/17 14:33:46;;;;;;;6.00;4.70;;;;;;;;;;5064927;28;20177;-70
2021/05/17 14:36:13;;;;;;;6.13;4.32;;;;;;;;;;5080867;28;20172;-73
2021/05/17 14:38:39;;;;;;;5.30;4.80;;;;;;;;;;5074972;28;20187;-74
2021/05/17 14:41:05;;;;;;;6.43;5.50;;;;;;;;;;5068589;28;20218;-73
2021/05/17 14:43:31;;;;;;;7.90;6.80;;;;;;;;;;5054762;28;20175;-74
2021/05/17 14:45:58;;;;;;;6.60;5.90;;;;;;;;;;5060863;28;20192;-74
2021/05/17 14:48:25;;;;;;;6.82;6.22;;;;;;;;;;5063703;28;20185;-73
2021/05/17 14:50:52;;;;;;;7.95;7.15;;;;;;;;;;5049205;28;20543;-74
2021/05/17 14:53:18;;;;;;;8.90;7.95;;;;;;;;;;5062121;28;20648;-73
2021/05/17 14:55:44;;;;;;;10.00;9.00;;;;;;;;;;5048970;28;20185;-73
2021/05/17 14:58:10;;;;;;;11.45;9.13;;;;;;;;;;5051942;28;20250;-73
2021/05/17 15:00:36;;;;;;;7.95;6.95;;;;;;;;;;5068287;28;20599;-74
2021/05/17 15:03:02;;;;;;;6.18;5.68;;;;;;;;;;5077611;28;20230;-75
2021/05/17 15:05:28;;;;;;;5.40;4.90;;;;;;;;;;5053920;28;20180;-76
2021/05/17 15:07:56;;;;;;;6.07;5.43;;;;;;;;;;5054229;28;20204;-74
2021/05/17 15:10:23;;;;;;;6.20;5.60;;;;;;;;;;5070548;28;20198;-75